Bluffton, South Carolina
Current Conditions -  °F | °C
As of 10:35 PM on Friday 24 Oct 2014 (Local Time) from KHXD Reporting Station
NA  
Wind Chill: 12°   Ceiling: NA
Heat Index: 12°   Visibility: NA
Dew Point: 11°   Wind: 0mph
Humidity: 94%   Direction: NA
Pressure: 30.02"   Gusts: NA
Location:  32.24°N, 80.86°W
Report Text: KHXD 250235Z AUTO 00000KT 12/11 A3002 RMK AO2 P0000
Loading
Personal Weather Stations






























Interactive Weather Map
Tropical Storm Tracking
New forecast layout! Learn more

10-Day Weather Forecast

Advertisements
Track Severe Weather on mobile